Gujranwala, Pakistan
Current Conditions -  °F | °C
As of 4:25 AM on Sunday 23 Nov 2014 (Local Time) from OPLA Reporting Station
Haze Haze  
Wind Chill: 50°   Ceiling: Unl
Heat Index: 50°   Visibility: 0.93mi
Dew Point: 46°   Wind: 0mph
Humidity: 87%   Direction: NA
Pressure: NA   Gusts: NA
Location:  32.16°N, 74.18°E
Report Text: OPLA 222325Z 00000KT 1500 BR NSC 10/08 Q1015/A29.98
Loading
Personal Weather Stations






























Interactive Weather Map New forecast layout! Learn more

10-Day Weather Forecast

Advertisements
Track Severe Weather on mobile